Time;durP1;ratioP1;P1;durP2;ratioP2;P2;SDS_P1;SDS_P2;PMS_P1;PMS_P2;Temp;Humidity;BMP_temperature;BMP_pressure;BME280_temperature;BME280_humidity;BME280_pressure;Samples;Min_cycle;Max_cycle;Signal;HPM_P1;HPM_P2
2023/11/07 00:00:29;;;;;;;0.50;0.50;;;;;;;9.44;100.00;95992.34;5034449;28;20268;-71
2023/11/07 00:02:56;;;;;;;0.53;0.50;;;;;;;9.28;100.00;95992.47;5034454;28;20220;-70
2023/11/07 00:05:23;;;;;;;0.77;0.40;;;;;;;9.46;100.00;95985.91;5035453;28;20638;-70
2023/11/07 00:07:50;;;;;;;0.47;0.47;;;;;;;9.45;100.00;95992.16;5035167;28;20209;-70
2023/11/07 00:10:16;;;;;;;0.40;0.40;;;;;;;9.40;100.00;95996.31;5034856;28;20197;-71
2023/11/07 00:12:43;;;;;;;0.43;0.43;;;;;;;9.34;100.00;95995.22;5034805;28;20201;-70
2023/11/07 00:15:11;;;;;;;0.40;0.40;;;;;;;9.61;100.00;95996.47;5034708;28;20248;-70
2023/11/07 00:17:38;;;;;;;0.70;0.40;;;;;;;9.48;100.00;95991.84;5034264;28;20696;-70
2023/11/07 00:20:05;;;;;;;1.03;0.50;;;;;;;9.32;100.00;96001.66;5034935;28;20561;-71
2023/11/07 00:22:33;;;;;;;0.60;0.40;;;;;;;9.27;100.00;95996.91;5034969;28;20236;-70
2023/11/07 00:24:59;;;;;;;0.50;0.50;;;;;;;9.30;100.00;96001.00;5034400;28;20205;-70
2023/11/07 00:27:27;;;;;;;0.33;0.33;;;;;;;9.32;100.00;96020.06;5034864;28;20225;-71
2023/11/07 00:29:54;;;;;;;0.97;0.60;;;;;;;9.22;100.00;96012.38;5035409;28;20201;-70
2023/11/07 00:32:22;;;;;;;0.50;0.50;;;;;;;9.29;100.00;96005.44;5034442;28;20206;-71
2023/11/07 00:34:48;;;;;;;0.50;0.50;;;;;;;9.08;100.00;96001.00;5034312;28;20209;-71
2023/11/07 00:37:15;;;;;;;0.40;0.40;;;;;;;9.12;100.00;96000.47;5035376;28;20233;-70
2023/11/07 00:39:41;;;;;;;0.60;0.60;;;;;;;9.06;100.00;96019.53;5035583;28;20205;-70
2023/11/07 00:42:08;;;;;;;0.50;0.50;;;;;;;9.06;100.00;96006.41;5038172;28;20225;-71
2023/11/07 00:44:35;;;;;;;0.60;0.50;;;;;;;9.04;100.00;96011.03;5038002;28;20235;-71
2023/11/07 00:47:02;;;;;;;0.40;0.40;;;;;;;8.91;100.00;96010.78;5038046;28;20314;-70
2023/11/07 00:49:29;;;;;;;0.60;0.50;;;;;;;9.18;100.00;96012.91;5038064;28;20219;-71
2023/11/07 00:51:57;;;;;;;0.50;0.50;;;;;;;8.96;100.00;96015.50;5038245;28;20201;-70
2023/11/07 00:54:24;;;;;;;0.60;0.57;;;;;;;8.96;100.00;96013.72;5038067;28;20201;-70
2023/11/07 00:56:50;;;;;;;2.50;0.57;;;;;;;8.86;100.00;96012.25;5038252;28;20598;-70
2023/11/07 00:59:18;;;;;;;2.20;0.60;;;;;;;9.03;100.00;96017.28;5038598;28;20203;-70
2023/11/07 01:01:44;;;;;;;0.50;0.50;;;;;;;9.09;100.00;96017.41;5036690;28;20310;-70
2023/11/07 01:04:11;;;;;;;0.93;0.60;;;;;;;9.05;100.00;96015.31;5037932;28;20217;-70
2023/11/07 01:06:39;;;;;;;0.50;0.50;;;;;;;9.29;100.00;96009.88;5037609;28;20221;-70
2023/11/07 01:09:05;;;;;;;0.43;0.40;;;;;;;9.23;100.00;96021.91;5038193;28;20205;-70
2023/11/07 01:11:32;;;;;;;0.37;0.37;;;;;;;9.14;100.00;96016.88;5037204;28;20204;-70
2023/11/07 01:13:59;;;;;;;0.53;0.53;;;;;;;9.23;100.00;96015.84;5037481;28;20679;-71
2023/11/07 01:16:25;;;;;;;1.17;0.80;;;;;;;9.22;100.00;96016.84;5037779;28;20232;-70
2023/11/07 01:18:52;;;;;;;1.53;0.73;;;;;;;9.11;100.00;96011.97;5037423;28;20213;-71
2023/11/07 01:21:19;;;;;;;0.53;0.50;;;;;;;9.18;100.00;96010.28;5038023;28;20208;-70
2023/11/07 01:23:47;;;;;;;0.80;0.50;;;;;;;9.23;100.00;96010.59;5036573;28;20205;-70
2023/11/07 01:26:13;;;;;;;0.50;0.50;;;;;;;9.16;100.00;96009.63;5037667;28;20220;-70
2023/11/07 01:28:40;;;;;;;0.57;0.50;;;;;;;9.08;100.00;96010.50;5037752;28;20224;-71
2023/11/07 01:31:07;;;;;;;0.33;0.33;;;;;;;9.08;100.00;96011.50;5037515;28;20197;-70
2023/11/07 01:33:33;;;;;;;0.97;0.40;;;;;;;9.02;100.00;96007.75;5036393;28;20671;-70
2023/11/07 01:36:00;;;;;;;0.70;0.57;;;;;;;8.88;100.00;96007.66;5037505;28;20233;-71
2023/11/07 01:38:27;;;;;;;1.70;0.50;;;;;;;8.88;100.00;96011.09;5038041;28;20205;-69
2023/11/07 01:40:55;;;;;;;0.50;0.50;;;;;;;8.92;100.00;96003.69;5037072;28;20314;-70
2023/11/07 01:43:23;;;;;;;0.63;0.50;;;;;;;8.90;100.00;96003.88;5036464;28;20646;-70
2023/11/07 01:45:49;;;;;;;1.07;0.60;;;;;;;8.96;100.00;96008.44;5037421;28;20225;-70
2023/11/07 01:48:22;;;;;;;0.50;0.50;;;;;;;8.88;100.00;96005.84;5037658;28;20228;-70
2023/11/07 01:50:49;;;;;;;0.60;0.50;;;;;;;8.78;100.00;96010.50;5035969;28;20208;-71
2023/11/07 01:53:15;;;;;;;0.80;0.50;;;;;;;8.56;100.00;96013.88;5036590;28;20217;-70
2023/11/07 01:55:42;;;;;;;0.53;0.50;;;;;;;8.75;100.00;96008.22;5036940;28;20235;-70
2023/11/07 01:58:11;;;;;;;0.40;0.40;;;;;;;8.82;100.00;96001.31;5036360;28;20201;-70
2023/11/07 02:00:39;;;;;;;0.50;0.50;;;;;;;8.80;100.00;95998.00;5037173;28;20205;-69
2023/11/07 02:03:07;;;;;;;2.97;0.60;;;;;;;8.85;100.00;95987.81;5035883;28;20221;-70
2023/11/07 02:05:34;;;;;;;0.70;0.53;;;;;;;8.96;100.00;95995.31;5036754;28;20252;-71
2023/11/07 02:08:01;;;;;;;0.63;0.50;;;;;;;8.69;100.00;95994.94;5037062;28;20209;-71
2023/11/07 02:10:27;;;;;;;1.07;0.80;;;;;;;8.76;100.00;95993.28;5036682;28;20208;-71
2023/11/07 02:12:54;;;;;;;0.60;0.60;;;;;;;8.79;100.00;95996.38;5035418;28;20737;-70
2023/11/07 02:15:26;;;;;;;0.60;0.60;;;;;;;8.91;100.00;95992.38;5037035;28;20213;-71
2023/11/07 02:17:52;;;;;;;0.40;0.40;;;;;;;8.79;100.00;96006.88;5035763;28;20310;-71
2023/11/07 02:20:19;;;;;;;0.77;0.60;;;;;;;8.55;100.00;95999.13;5036245;28;20207;-70
2023/11/07 02:22:47;;;;;;;1.53;0.70;;;;;;;8.80;100.00;95995.38;5035766;28;20714;-70
2023/11/07 02:25:16;;;;;;;0.60;0.60;;;;;;;8.85;100.00;95994.88;5036788;28;20197;-70
2023/11/07 02:27:42;;;;;;;0.97;0.67;;;;;;;8.82;100.00;95988.16;5036562;28;20210;-71
2023/11/07 02:30:12;;;;;;;0.40;0.40;;;;;;;8.99;100.00;95989.69;5036210;28;20201;-69
2023/11/07 02:32:39;;;;;;;0.50;0.50;;;;;;;8.81;100.00;95999.66;5035527;28;20205;-70
2023/11/07 02:35:06;;;;;;;0.60;0.53;;;;;;;8.91;100.00;96004.69;5035627;28;20217;-71
2023/11/07 02:37:33;;;;;;;0.40;0.40;;;;;;;8.78;100.00;96000.00;5036783;28;20220;-71
2023/11/07 02:39:59;;;;;;;0.67;0.67;;;;;;;8.80;100.00;96002.47;5036271;28;20564;-70
2023/11/07 02:42:28;;;;;;;1.07;0.60;;;;;;;8.97;100.00;95998.75;5035027;28;20818;-70
2023/11/07 02:44:54;;;;;;;0.73;0.63;;;;;;;8.82;100.00;95993.41;5035058;28;20258;-71
2023/11/07 02:47:21;;;;;;;0.43;0.43;;;;;;;8.94;100.00;95993.84;5037254;28;20567;-69
2023/11/07 02:49:48;;;;;;;0.50;0.50;;;;;;;8.94;100.00;95994.66;5036428;28;20866;-70
2023/11/07 02:52:14;;;;;;;1.23;0.50;;;;;;;8.87;100.00;95992.88;5036326;28;20203;-71
2023/11/07 02:54:41;;;;;;;0.60;0.60;;;;;;;8.81;100.00;96001.47;5035336;28;20205;-68
2023/11/07 02:57:07;;;;;;;1.90;1.20;;;;;;;8.76;100.00;95995.91;5036018;28;20320;-69
2023/11/07 02:59:35;;;;;;;1.13;0.60;;;;;;;8.89;100.00;95996.16;5035183;28;20229;-71
2023/11/07 03:02:03;;;;;;;0.50;0.50;;;;;;;8.66;100.00;95995.28;5035121;28;20318;-70
2023/11/07 03:04:29;;;;;;;0.60;0.50;;;;;;;8.62;100.00;96004.50;5035657;28;20274;-69
2023/11/07 03:06:57;;;;;;;0.50;0.50;;;;;;;8.59;100.00;96005.66;5035256;28;20231;-70
2023/11/07 03:09:24;;;;;;;0.50;0.50;;;;;;;8.63;100.00;96012.22;5035823;28;20676;-69
2023/11/07 03:11:50;;;;;;;0.50;0.50;;;;;;;8.49;100.00;96004.25;5035947;28;20201;-71
2023/11/07 03:14:17;;;;;;;0.50;0.50;;;;;;;8.51;100.00;96016.22;5035059;28;20906;-70
2023/11/07 03:16:45;;;;;;;1.27;0.70;;;;;;;8.85;100.00;96021.16;5035028;28;20243;-70
2023/11/07 03:19:11;;;;;;;0.57;0.50;;;;;;;8.54;100.00;96013.25;5035330;28;20571;-69
2023/11/07 03:21:38;;;;;;;0.70;0.50;;;;;;;8.58;100.00;96009.28;5035170;28;20237;-69
2023/11/07 03:24:07;;;;;;;1.10;0.80;;;;;;;8.58;100.00;96014.53;5034851;28;20232;-70
2023/11/07 03:26:34;;;;;;;0.60;0.60;;;;;;;8.45;100.00;96012.59;5035259;28;20217;-69
2023/11/07 03:29:00;;;;;;;0.47;0.47;;;;;;;8.39;100.00;96005.41;5033626;28;20293;-69
2023/11/07 03:31:27;;;;;;;2.27;0.60;;;;;;;8.48;100.00;96006.03;5035087;28;20211;-70
2023/11/07 03:33:55;;;;;;;0.60;0.50;;;;;;;8.58;100.00;96009.28;5034627;28;20675;-70
2023/11/07 03:36:21;;;;;;;0.40;0.40;;;;;;;8.31;100.00;96016.78;5035502;28;20231;-69
2023/11/07 03:38:48;;;;;;;0.50;0.50;;;;;;;8.46;100.00;96014.25;5035674;28;20205;-69
2023/11/07 03:41:14;;;;;;;2.00;0.60;;;;;;;8.57;100.00;96026.00;5034970;28;20208;-69
2023/11/07 03:43:41;;;;;;;1.00;0.80;;;;;;;8.62;100.00;96026.31;5034613;28;20807;-70
2023/11/07 03:46:08;;;;;;;0.50;0.50;;;;;;;8.57;100.00;96027.84;5034922;28;20225;-70
2023/11/07 03:48:34;;;;;;;0.90;0.50;;;;;;;8.45;100.00;96031.00;5035720;28;20211;-70
2023/11/07 03:51:02;;;;;;;1.33;0.57;;;;;;;8.73;100.00;96028.59;5034901;28;20211;-70
2023/11/07 03:53:28;;;;;;;0.43;0.43;;;;;;;8.57;100.00;96039.16;5034330;28;21022;-70
2023/11/07 03:55:57;;;;;;;0.80;0.63;;;;;;;8.66;100.00;96032.88;5034672;28;20229;-71
2023/11/07 03:58:24;;;;;;;0.60;0.50;;;;;;;8.72;100.00;96037.47;5036448;28;20374;-69
2023/11/07 04:00:50;;;;;;;0.60;0.60;;;;;;;8.78;100.00;96036.78;5034980;28;20205;-70
2023/11/07 04:03:17;;;;;;;0.60;0.60;;;;;;;8.97;100.00;96036.34;5033857;28;20217;-70
2023/11/07 04:05:43;;;;;;;1.07;0.47;;;;;;;8.93;100.00;96040.31;5035085;28;20227;-70
2023/11/07 04:08:11;;;;;;;0.97;0.60;;;;;;;9.08;100.00;96028.88;5034851;28;20581;-69
2023/11/07 04:10:38;;;;;;;1.43;0.60;;;;;;;8.97;100.00;96027.66;5034598;28;20710;-71
2023/11/07 04:13:05;;;;;;;2.23;0.50;;;;;;;9.04;100.00;96025.97;5034135;28;20672;-69
2023/11/07 04:15:31;;;;;;;0.40;0.40;;;;;;;9.05;100.00;96022.34;5037700;28;20229;-70
2023/11/07 04:17:58;;;;;;;1.13;0.70;;;;;;;9.00;100.00;96020.25;5037768;28;20205;-69
2023/11/07 04:20:25;;;;;;;0.40;0.40;;;;;;;8.96;100.00;96018.97;5039315;28;20663;-69
2023/11/07 04:22:54;;;;;;;0.50;0.50;;;;;;;8.90;100.00;96016.22;5038132;28;20228;-69
2023/11/07 04:25:22;;;;;;;1.27;0.80;;;;;;;8.93;100.00;96023.72;5038518;28;20213;-69
2023/11/07 04:27:48;;;;;;;0.70;0.70;;;;;;;8.80;100.00;96023.47;5038524;28;20303;-70
2023/11/07 04:30:16;;;;;;;0.80;0.73;;;;;;;8.71;100.00;96027.94;5038560;28;20586;-70
2023/11/07 04:32:43;;;;;;;0.63;0.63;;;;;;;8.59;100.00;96018.81;5037505;28;20193;-70
2023/11/07 04:35:11;;;;;;;0.70;0.70;;;;;;;8.55;100.00;96022.75;5037711;28;20300;-70
2023/11/07 04:37:38;;;;;;;0.90;0.80;;;;;;;8.47;100.00;96031.66;5038487;28;20201;-69
2023/11/07 04:40:08;;;;;;;0.90;0.60;;;;;;;8.53;100.00;96026.53;5038140;28;20212;-69
2023/11/07 04:42:36;;;;;;;1.37;0.60;;;;;;;8.56;100.00;96032.25;5037529;28;20312;-70
2023/11/07 04:45:06;;;;;;;0.60;0.60;;;;;;;8.40;100.00;96036.75;5038582;28;20216;-69
2023/11/07 04:47:33;;;;;;;0.63;0.60;;;;;;;8.33;100.00;96019.22;5037953;28;20659;-69
2023/11/07 04:50:00;;;;;;;5.43;0.70;;;;;;;8.41;100.00;96033.13;5038343;28;20205;-71
2023/11/07 04:52:26;;;;;;;2.23;0.70;;;;;;;8.43;100.00;96025.09;5037796;28;20207;-69
2023/11/07 04:54:53;;;;;;;1.33;0.60;;;;;;;8.40;100.00;96022.78;5038701;28;20201;-69
2023/11/07 04:57:20;;;;;;;0.53;0.53;;;;;;;8.41;100.00;96017.38;5037997;28;20227;-69
2023/11/07 04:59:48;;;;;;;0.80;0.80;;;;;;;8.51;100.00;96023.25;5038426;28;20206;-70
2023/11/07 05:02:15;;;;;;;0.67;0.50;;;;;;;8.35;100.00;96022.47;5037622;28;20757;-69
2023/11/07 05:04:44;;;;;;;0.50;0.50;;;;;;;8.19;100.00;96035.66;5037293;28;20240;-71
2023/11/07 05:07:10;;;;;;;0.90;0.77;;;;;;;8.29;100.00;96036.31;5037954;28;20225;-71
2023/11/07 05:09:37;;;;;;;0.87;0.60;;;;;;;8.26;100.00;96034.00;5039204;28;20201;-70
2023/11/07 05:12:05;;;;;;;0.90;0.60;;;;;;;8.28;100.00;96032.03;5037255;28;20213;-70
2023/11/07 05:14:32;;;;;;;0.97;0.80;;;;;;;8.28;100.00;96038.09;5037109;28;20293;-69
2023/11/07 05:17:00;;;;;;;0.67;0.60;;;;;;;8.39;100.00;96039.53;5038108;28;20232;-70
2023/11/07 05:19:27;;;;;;;0.50;0.50;;;;;;;8.22;100.00;96032.69;5037362;28;20221;-70
2023/11/07 05:21:53;;;;;;;0.90;0.70;;;;;;;8.17;100.00;96038.47;5037722;28;20919;-69
2023/11/07 05:24:20;;;;;;;1.47;1.00;;;;;;;8.13;100.00;96033.66;5036476;28;20230;-69
2023/11/07 05:26:46;;;;;;;4.63;1.30;;;;;;;8.15;100.00;96036.97;5037913;28;20232;-69
2023/11/07 05:29:14;;;;;;;1.60;1.10;;;;;;;8.15;100.00;96036.97;5036806;28;20201;-70
2023/11/07 05:31:40;;;;;;;2.87;1.47;;;;;;;8.10;100.00;96034.81;5038193;28;20558;-69
2023/11/07 05:34:08;;;;;;;3.30;1.70;;;;;;;8.24;100.00;96033.34;5036939;28;20312;-70
2023/11/07 05:36:35;;;;;;;3.37;1.73;;;;;;;7.97;100.00;96037.13;5037096;28;20260;-70
2023/11/07 05:39:02;;;;;;;4.40;1.50;;;;;;;7.97;100.00;96034.50;5037307;28;20216;-69
2023/11/07 05:41:29;;;;;;;6.90;1.93;;;;;;;7.97;100.00;96038.94;5036842;28;20205;-69
2023/11/07 05:43:56;;;;;;;4.50;2.00;;;;;;;7.88;100.00;96030.25;5036554;28;20221;-70
2023/11/07 05:46:23;;;;;;;3.93;1.83;;;;;;;7.84;100.00;96038.63;5036945;28;20225;-69
2023/11/07 05:48:51;;;;;;;4.30;1.80;;;;;;;7.85;100.00;96050.75;5037585;28;20212;-70
2023/11/07 05:51:19;;;;;;;5.57;1.47;;;;;;;7.94;100.00;96034.00;5036522;28;20316;-69
2023/11/07 05:53:46;;;;;;;2.13;1.30;;;;;;;7.82;100.00;96045.03;5036754;28;20237;-70
2023/11/07 05:56:12;;;;;;;2.10;1.13;;;;;;;7.76;100.00;96035.19;5037310;28;20229;-69
2023/11/07 05:58:39;;;;;;;1.27;1.17;;;;;;;7.71;100.00;96033.03;5036429;28;20205;-70
2023/11/07 06:01:06;;;;;;;1.37;0.97;;;;;;;7.69;100.00;96035.03;5036563;28;21226;-70
2023/11/07 06:03:32;;;;;;;1.03;0.93;;;;;;;7.62;100.00;96031.41;5036734;28;20236;-70
2023/11/07 06:05:59;;;;;;;0.80;0.80;;;;;;;7.54;100.00;96034.03;5037178;28;20225;-70
2023/11/07 06:08:27;;;;;;;3.13;1.20;;;;;;;7.67;100.00;96031.75;5036608;28;20211;-70
2023/11/07 06:10:53;;;;;;;1.53;1.20;;;;;;;7.48;100.00;96026.00;5037833;28;20215;-68
2023/11/07 06:13:20;;;;;;;3.83;2.10;;;;;;;7.53;100.00;96018.47;5037266;28;20241;-70
2023/11/07 06:15:46;;;;;;;2.57;1.83;;;;;;;7.54;100.00;96023.56;5037301;28;20225;-69
2023/11/07 06:18:13;;;;;;;3.00;2.07;;;;;;;7.62;100.00;96028.78;5038340;28;20204;-68
2023/11/07 06:20:39;;;;;;;2.07;1.17;;;;;;;7.72;100.00;96032.06;5038413;28;20198;-69
2023/11/07 06:23:06;;;;;;;0.87;0.60;;;;;;;7.75;100.00;96034.38;5036887;28;20225;-72
2023/11/07 06:25:34;;;;;;;0.90;0.80;;;;;;;7.86;100.00;96031.41;5038641;28;20220;-69
2023/11/07 06:28:02;;;;;;;0.70;0.63;;;;;;;7.78;100.00;96027.97;5039306;28;20518;-68
2023/11/07 06:30:29;;;;;;;0.67;0.67;;;;;;;7.86;100.00;96026.16;5037063;28;20718;-71
2023/11/07 06:32:56;;;;;;;1.50;1.07;;;;;;;7.90;100.00;96030.09;5036873;28;20625;-71
2023/11/07 06:35:23;;;;;;;1.17;1.00;;;;;;;7.97;100.00;96018.78;5036720;28;20212;-70
2023/11/07 06:37:50;;;;;;;1.80;0.80;;;;;;;7.95;100.00;96025.97;5037347;28;20193;-72
2023/11/07 06:40:18;;;;;;;0.77;0.70;;;;;;;7.99;100.00;96023.84;5037021;28;20296;-70
2023/11/07 06:42:47;;;;;;;1.07;0.77;;;;;;;8.03;100.00;96022.53;5036923;28;20202;-70
2023/11/07 06:45:14;;;;;;;1.00;0.77;;;;;;;7.88;100.00;96034.69;5037833;28;20221;-70
2023/11/07 06:47:42;;;;;;;1.00;0.80;;;;;;;7.96;100.00;96037.31;5036892;28;20655;-69
2023/11/07 06:50:09;;;;;;;2.60;1.00;;;;;;;8.09;100.00;96038.41;5037430;28;20205;-69
2023/11/07 06:52:39;;;;;;;2.67;1.37;;;;;;;8.06;100.00;96056.31;5036683;28;20292;-72
2023/11/07 06:55:06;;;;;;;3.30;1.70;;;;;;;7.94;100.00;96065.50;5038093;28;20197;-69
2023/11/07 06:57:33;;;;;;;12.07;3.60;;;;;;;7.95;100.00;96080.25;5037653;28;20787;-70
2023/11/07 07:00:05;;;;;;;8.50;3.10;;;;;;;7.59;100.00;96086.00;5037523;28;20255;-69
2023/11/07 07:02:31;;;;;;;3.50;1.57;;;;;;;7.73;100.00;96088.78;5036243;28;20213;-69
2023/11/07 07:04:59;;;;;;;3.00;1.27;;;;;;;7.77;100.00;96082.22;5037858;28;20221;-69
2023/11/07 07:07:25;;;;;;;1.97;1.30;;;;;;;7.87;100.00;96088.94;5036612;28;20233;-72
2023/11/07 07:09:52;;;;;;;2.07;1.60;;;;;;;7.89;100.00;96084.38;5036871;28;20208;-69
2023/11/07 07:12:19;;;;;;;1.53;1.07;;;;;;;7.73;100.00;96088.78;5036988;28;20585;-69
2023/11/07 07:14:46;;;;;;;2.13;1.40;;;;;;;7.58;100.00;96094.84;5036761;28;20251;-69
2023/11/07 07:17:16;;;;;;;1.60;1.10;;;;;;;7.86;100.00;96099.59;5036396;28;20220;-69
2023/11/07 07:19:42;;;;;;;1.40;0.83;;;;;;;7.62;100.00;96099.59;5037075;28;20303;-69
2023/11/07 07:22:09;;;;;;;2.90;1.10;;;;;;;7.31;100.00;96105.59;5036943;28;20205;-69
2023/11/07 07:24:35;;;;;;;2.33;1.20;;;;;;;7.29;100.00;96099.69;5036243;28;20224;-69
2023/11/07 07:27:02;;;;;;;2.07;1.33;;;;;;;7.43;100.00;96106.94;5036292;28;20699;-70
2023/11/07 07:29:29;;;;;;;2.50;1.57;;;;;;;7.36;100.00;96106.75;5035657;28;20227;-69
2023/11/07 07:31:56;;;;;;;2.57;1.73;;;;;;;7.27;100.00;96102.47;5035646;28;20300;-72
2023/11/07 07:34:24;;;;;;;4.67;2.13;;;;;;;7.58;100.00;96106.13;5035012;28;20243;-71
2023/11/07 07:36:54;;;;;;;3.17;1.63;;;;;;;7.46;100.00;96110.06;5036464;28;20228;-72
2023/11/07 07:39:28;;;;;;;3.67;1.80;;;;;;;7.64;100.00;96116.00;5035592;28;20211;-71
2023/11/07 07:41:56;;;;;;;2.83;1.43;;;;;;;7.80;100.00;96115.19;5036476;28;20204;-73
2023/11/07 07:44:24;;;;;;;8.73;2.57;;;;;;;7.89;100.00;96115.00;5034886;28;20592;-71
2023/11/07 07:46:51;;;;;;;4.90;1.90;;;;;;;8.02;100.00;96120.63;5035490;28;20653;-71
2023/11/07 07:49:22;;;;;;;5.33;2.27;;;;;;;8.20;100.00;96118.66;5037566;28;20201;-72
2023/11/07 07:51:52;;;;;;;7.23;2.40;;;;;;;8.46;100.00;96119.28;5040045;28;20288;-72
2023/11/07 07:54:22;;;;;;;5.33;2.20;;;;;;;8.36;100.00;96111.56;5039327;28;20220;-72
2023/11/07 07:56:49;;;;;;;1.80;1.30;;;;;;;8.49;100.00;96117.97;5039561;28;20267;-72
2023/11/07 07:59:15;;;;;;;1.80;1.50;;;;;;;8.47;100.00;96113.84;5039280;28;20208;-69
2023/11/07 08:01:42;;;;;;;3.07;1.80;;;;;;;8.66;100.00;96122.19;5039477;28;20198;-71
2023/11/07 08:04:08;;;;;;;2.37;1.60;;;;;;;8.66;100.00;96114.31;5037673;28;20236;-71
2023/11/07 08:06:35;;;;;;;4.23;2.13;;;;;;;8.77;100.00;96116.56;5040697;28;20594;-69
2023/11/07 08:09:03;;;;;;;3.27;1.77;;;;;;;8.98;100.00;96113.38;5038265;28;20225;-70
2023/11/07 08:11:30;;;;;;;3.13;1.30;;;;;;;8.83;100.00;96118.50;5039346;28;20201;-71
2023/11/07 08:13:57;;;;;;;3.03;1.70;;;;;;;8.87;100.00;96125.09;5039180;28;20197;-69
2023/11/07 08:16:23;;;;;;;2.53;1.43;;;;;;;8.86;100.00;96109.47;5039469;28;20719;-70
2023/11/07 08:18:50;;;;;;;2.77;1.60;;;;;;;8.97;100.00;96109.91;5038342;28;20968;-72
2023/11/07 08:21:18;;;;;;;3.77;1.93;;;;;;;9.08;100.00;96110.38;5039817;28;20200;-71
2023/11/07 08:23:44;;;;;;;3.10;1.73;;;;;;;9.04;100.00;96105.63;5038231;28;20260;-70
2023/11/07 08:26:13;;;;;;;2.73;1.63;;;;;;;9.30;100.00;96098.28;5038466;28;20225;-70
2023/11/07 08:28:43;;;;;;;3.73;1.60;;;;;;;9.14;100.00;96098.38;5038604;28;20611;-70
2023/11/07 08:31:11;;;;;;;2.83;1.80;;;;;;;9.27;100.00;96090.75;5038342;28;20671;-69
2023/11/07 08:33:38;;;;;;;2.97;1.33;;;;;;;9.32;100.00;96083.16;5037514;28;20198;-70
2023/11/07 08:36:05;;;;;;;2.70;1.97;;;;;;;9.14;100.00;96085.22;5039120;28;20243;-68
2023/11/07 08:38:32;;;;;;;2.07;1.40;;;;;;;9.28;100.00;96092.41;5038483;28;20672;-70
2023/11/07 08:40:59;;;;;;;3.30;1.80;;;;;;;9.26;100.00;96089.09;5038001;28;20197;-70
2023/11/07 08:43:27;;;;;;;3.73;1.90;;;;;;;9.58;100.00;96094.19;5034850;28;20220;-68
2023/11/07 08:45:54;;;;;;;2.10;1.70;;;;;;;9.68;100.00;96091.13;5037623;28;20282;-68
2023/11/07 08:48:21;;;;;;;5.57;2.10;;;;;;;9.58;100.00;96094.19;5037305;28;20213;-70
2023/11/07 08:50:47;;;;;;;3.57;1.57;;;;;;;9.76;100.00;96095.50;5037368;28;20209;-70
2023/11/07 08:53:15;;;;;;;3.93;1.70;;;;;;;10.11;100.00;96093.13;5036604;28;20651;-69
2023/11/07 08:55:41;;;;;;;3.03;1.57;;;;;;;10.20;100.00;96094.69;5037803;28;20451;-69
2023/11/07 08:58:08;;;;;;;2.07;1.03;;;;;;;10.43;100.00;96088.38;5037877;28;20209;-69
2023/11/07 09:00:36;;;;;;;1.70;1.07;;;;;;;10.66;100.00;96083.88;5036001;28;20205;-69
2023/11/07 09:03:03;;;;;;;2.07;0.80;;;;;;;10.69;100.00;96093.22;5036862;28;20204;-70
2023/11/07 09:05:30;;;;;;;1.47;1.03;;;;;;;10.91;100.00;96093.16;5035771;28;20962;-69
2023/11/07 09:07:57;;;;;;;1.17;1.00;;;;;;;11.02;100.00;96096.16;5038246;28;20236;-69
2023/11/07 09:10:23;;;;;;;2.10;1.00;;;;;;;11.21;100.00;96095.56;5036721;28;20205;-70
2023/11/07 09:12:50;;;;;;;2.07;1.27;;;;;;;11.23;100.00;96084.84;5036136;28;20211;-69
2023/11/07 09:15:19;;;;;;;1.73;1.17;;;;;;;11.60;100.00;96096.88;5036496;28;20197;-70
2023/11/07 09:17:47;;;;;;;1.50;0.93;;;;;;;11.94;100.00;96104.13;5037508;28;20213;-68
2023/11/07 09:20:14;;;;;;;1.10;1.00;;;;;;;11.85;100.00;96090.25;5036868;28;20208;-70
2023/11/07 09:22:41;;;;;;;2.07;1.00;;;;;;;12.02;100.00;96093.47;5037329;28;20201;-68
2023/11/07 09:25:09;;;;;;;4.10;1.00;;;;;;;12.16;100.00;96088.91;5037372;28;20221;-71
2023/11/07 09:27:36;;;;;;;3.17;1.10;;;;;;;12.27;100.00;96084.94;5037651;28;20221;-70
2023/11/07 09:30:04;;;;;;;1.37;0.87;;;;;;;12.39;100.00;96092.16;5037461;28;20197;-70
2023/11/07 09:32:31;;;;;;;1.73;0.93;;;;;;;12.16;100.00;96095.22;5036454;28;20205;-68
2023/11/07 09:34:59;;;;;;;1.70;0.83;;;;;;;12.18;100.00;96091.34;5037861;28;20733;-71
2023/11/07 09:37:26;;;;;;;0.97;0.63;;;;;;;12.15;100.00;96096.22;5037176;28;20229;-71
2023/11/07 09:39:54;;;;;;;0.93;0.57;;;;;;;12.44;100.00;96102.16;5037469;28;20201;-69
2023/11/07 09:42:20;;;;;;;0.40;0.40;;;;;;;12.04;100.00;96105.47;5036765;28;20209;-67
2023/11/07 09:44:49;;;;;;;0.53;0.53;;;;;;;12.40;100.00;96100.91;5037150;28;20218;-68
2023/11/07 09:47:16;;;;;;;0.50;0.50;;;;;;;12.30;100.00;96106.50;5036396;28;20225;-69
2023/11/07 09:49:43;;;;;;;0.70;0.50;;;;;;;12.15;100.00;96104.94;5037033;28;20690;-68
2023/11/07 09:52:12;;;;;;;0.60;0.60;;;;;;;12.50;100.00;96091.66;5036764;28;20205;-68
2023/11/07 09:54:39;;;;;;;0.80;0.60;;;;;;;12.50;100.00;96093.44;5036492;28;20209;-70
2023/11/07 09:57:08;;;;;;;0.80;0.80;;;;;;;12.65;100.00;96080.97;5037141;28;20225;-69
2023/11/07 09:59:37;;;;;;;1.10;0.90;;;;;;;13.03;100.00;96080.41;5036404;28;20201;-70
2023/11/07 10:02:06;;;;;;;0.60;0.60;;;;;;;12.88;100.00;96085.00;5037318;28;20194;-68
2023/11/07 10:04:35;;;;;;;0.50;0.50;;;;;;;12.81;100.00;96092.06;5036127;28;20229;-68
2023/11/07 10:07:02;;;;;;;1.70;0.60;;;;;;;13.13;100.00;96080.88;5037140;28;20221;-69
2023/11/07 10:09:32;;;;;;;0.40;0.40;;;;;;;13.08;100.00;96086.75;5035991;28;20238;-70
2023/11/07 10:11:58;;;;;;;0.73;0.63;;;;;;;13.25;100.00;96084.59;5036159;28;20236;-70
2023/11/07 10:14:26;;;;;;;1.97;1.10;;;;;;;13.30;100.00;96087.47;5035690;28;20201;-69
2023/11/07 10:16:54;;;;;;;2.93;1.43;;;;;;;13.33;100.00;96079.97;5036647;28;20221;-70
2023/11/07 10:19:22;;;;;;;1.10;0.63;;;;;;;12.96;100.00;96080.38;5036061;28;20213;-70
2023/11/07 10:21:49;;;;;;;3.23;0.90;;;;;;;13.03;100.00;96077.78;5035656;28;20292;-69
2023/11/07 10:24:16;;;;;;;2.87;0.60;;;;;;;13.18;100.00;96079.28;5035490;28;20216;-70
2023/11/07 10:26:58;;;;;;;3.20;0.70;;;;;;;13.85;100.00;96083.59;5036232;28;20358;-71
2023/11/07 10:29:30;;;;;;;0.40;0.40;;;;;;;13.32;100.00;96082.81;5036509;28;21191;-71
2023/11/07 10:32:02;;;;;;;0.70;0.70;;;;;;;13.25;100.00;96077.50;5035489;28;20211;-69
2023/11/07 10:34:30;;;;;;;1.13;0.70;;;;;;;12.81;100.00;96069.06;5035278;28;20216;-70
2023/11/07 10:36:58;;;;;;;1.33;0.73;;;;;;;12.62;100.00;96076.06;5036558;28;20221;-71
2023/11/07 10:39:26;;;;;;;1.13;1.03;;;;;;;12.79;100.00;96071.09;5036228;28;20201;-70
2023/11/07 10:41:54;;;;;;;0.93;0.70;;;;;;;12.86;100.00;96063.25;5035753;28;20211;-69
2023/11/07 10:44:24;;;;;;;0.70;0.70;;;;;;;13.03;100.00;96064.53;5036157;28;20320;-69
2023/11/07 10:46:52;;;;;;;0.93;0.60;;;;;;;12.91;100.00;96068.75;5036203;28;20221;-70
2023/11/07 10:49:19;;;;;;;0.80;0.63;;;;;;;13.01;100.00;96056.81;5035932;28;20665;-71
2023/11/07 10:51:46;;;;;;;0.73;0.73;;;;;;;12.88;100.00;96059.38;5036098;28;20205;-71
2023/11/07 10:54:13;;;;;;;0.67;0.67;;;;;;;12.91;100.00;96058.19;5034536;28;20202;-68
2023/11/07 10:56:44;;;;;;;0.83;0.50;;;;;;;13.08;98.12;96062.13;5035851;28;20893;-71
2023/11/07 10:59:16;;;;;;;0.93;0.70;;;;;;;12.81;98.37;96062.97;5035348;28;20221;-70
2023/11/07 11:01:46;;;;;;;0.93;0.60;;;;;;;12.78;97.87;96064.16;5036366;28;20258;-71
2023/11/07 11:04:14;;;;;;;1.70;0.97;;;;;;;13.03;98.93;96061.91;5034873;28;20696;-68
2023/11/07 11:06:51;;;;;;;2.37;0.80;;;;;;;13.22;98.92;96050.59;5035335;28;20209;-70
2023/11/07 11:09:20;;;;;;;3.43;1.17;;;;;;;13.24;97.95;96048.56;5035222;28;20297;-70
2023/11/07 11:11:49;;;;;;;0.80;0.80;;;;;;;13.43;93.46;96054.75;5036329;28;20197;-71
2023/11/07 11:14:17;;;;;;;2.23;0.50;;;;;;;13.38;92.84;96049.22;5034843;28;20554;-69
2023/11/07 11:16:46;;;;;;;0.60;0.60;;;;;;;13.12;94.46;96050.13;5035037;28;20216;-71
2023/11/07 11:19:24;;;;;;;0.83;0.70;;;;;;;13.62;93.47;96058.47;5035597;28;20209;-70
2023/11/07 11:21:58;;;;;;;1.33;0.80;;;;;;;13.47;92.46;96055.19;5035603;28;20254;-72
2023/11/07 11:24:40;;;;;;;0.80;0.70;;;;;;;13.54;93.39;96051.53;5034990;28;20224;-70
2023/11/07 11:27:14;;;;;;;0.67;0.50;;;;;;;13.50;92.00;96044.19;5035492;28;20221;-69
2023/11/07 11:29:46;;;;;;;0.80;0.70;;;;;;;13.68;93.67;96042.63;5035067;28;20205;-71
2023/11/07 11:32:27;;;;;;;0.60;0.50;;;;;;;13.78;91.34;96037.72;5035818;28;20271;-71